Michiel Van Hauwermeiren

Info Calendar Team mates 2018 2017 2016 2015 Comments

Teams

Season Div. Team FC-rank UCI-rank Race days * Wins * Km *
2018 Home Solutions-Anmapa 4116(0 p) - 7 0 927.1
2017 Home Solutions-Anmapa-Soenens - - 2 0 362.8
* from UCI races (1.2 & 2.2 and higher classifications)

2018 Results

# What Date Pos GC Km Race Winner
2018-10-10 KP One-day race 10.10 DNF Oostvlaamse Sluitingsprijs J.Stallaert
2018-09-26 KP One-day race 26.09 39 162.4 km Memorial Fred De Bruyne O.Naesen
2018-09-12 1.12B One-day race 12.09 24 111.1 km Sint-Pauwels C.Van Cauwenberghe
2018-09-08 1.IC2 One-day race 08.09 40 127.0 km Heuvelland Classic M.Paasschens
2018-09-06 1.12B One-day race 06.09 8 114.0 km Sint-Gillis-Waas J.Verstraeten
2018-09-03 1.12B One-day race 03.09 10 115.0 km Denderhoutem J.De Plus
2018-08-30 1.12B One-day race 30.08 15 118.0 km Baardegem G.De Wilde
2018-08-26 1.IC1 One-day race 26.08 19 152.1 km Grand Prix de la Magne M.Paasschens
2018-08-21 1.2 One-day race 21.08 DNF 160.0 km GP des Marbriers J.Mould
2018-08-19 1.12B One-day race 19.08 25 120.0 km Dendermonde P.De Paepe
2018-08-12 CN Stabroek 12.08 DNF 176.8 km CN Belgium RR-U23 G.Thijssen
2018-08-08 2.IC Stage race 04.08-08.08 DNF Tour de la Namur A.Stockman
2018-07-26 1.IC1 One-day race 26.07 41 166.0 km Internatie Reningelst F.Breye
2018-07-20 2.IC Stage race 16.07-20.07 47 Tour de Liége M.Dieleman
2018-07-20 2.IC Youth 16.07-20.07 25 Tour de Liége J.Van Dingenen
2018-07-07 1.12B One-day race 07.07 4 112.5 km Herzele-Borsbeke N.Vandyck
2018-07-05 KP One-day race 05.07 DNF 153.0 km Omloop Gemeente Melle J.Baugnies
2018-06-30 1.2 One-day race 30.06 30 176.7 km Nieuwsblad Espoirs E.Resell
2018-06-23 1.IC1 One-day race 23.06 29 150.8 km Grand Prix Color Code J.Van Oudenhove
2018-06-17 1.12A One-day race 17.06 18 139.5 km Erembodegem-Terjoden J.Stallaert
2018-06-16 1.12A One-day race 16.06 20 125.0 km Zele G.Druyts
2018-06-09 1.12B One-day race 09.06 24 119.0 km Ghoy J.Vandenbogaerde
2018-05-27 1.2 One-day race 27.05 52 176.9 km Circuit de Wallonie M.Honore
2018-05-21 1.12B One-day race 21.05 16 110.6 km Berlare T.Verhofstadt
2018-05-12 1.IC2 One-day race 12.05 22 139.0 km Trofee Oost-Vlaanderen G.D'Heygere
2018-05-06 KP One-day race 06.05 62 160.0 km Trofee Maarten Wynants J.Philipsen
2018-05-01 CN Vreese Sur Semois 01.05 19 CN Belgium ITT-U23 S.Weemaes
2018-04-28 1.13 Mere 28.04 19 144.2 km PK Oost-Vlaanderen U23 G.D'Heygere
2018-04-21 1.IC1 Stage race 21.04 25 142.2 km Driebergenprijs J.Calleeuw
2018-04-14 1.2U One-day race 14.04 72 173.4 km LBL Espoirs (U23) J.Almeida
2018-04-02 2.2U Stage race 31.03-02.04 82 Tript. Monts Châteaux J.Philipsen
2018-03-18 1.IC1 One-day race 18.03 108 158.0 km Zuid-Kempense Pijl G.Thijssen
2018-03-16 1.IC1 One-day race 16.03 65 151.0 km Handzame Challenge S.Weemaes
2018-03-04 1.12A One-day race 04.03 16 123.5 km Lierde N.Verougstraete
2018-02-24 1.12B One-day race 24.02 26 127.0 km Villers le Temple B.De Decker
2018-08-08 2.IC 05.stage 08.08 DNF 159.5 km Tour de la Namur J.Van Dingenen
2018-08-07 2.IC 04.stage 07.08 99 84 146 km Tour de la Namur A.Stockman
2018-08-06 2.IC 03.stage 06.08 61 75 156.4 km Tour de la Namur G.Delvaux
2018-08-05 2.IC 02.stage 05.08 72 70 158.3 km Tour de la Namur M.Paasschens
2018-08-04 2.IC 01.stage 04.08 42 42 154.6 km Tour de la Namur J.Jacobs
2018-07-20 2.IC 05.stage 20.07 65 47 151 km Tour de Liége G.Vermeersch
2018-07-19 2.IC 04.stage 19.07 73 51 155.1 km Tour de Liége A.Debuy
2018-07-18 2.IC 03.stage 18.07 25 54 147 km Tour de Liége G.Vermeersch
2018-07-17 2.IC 02.stage 17.07 54 63 155.3 km Tour de Liége K.Pauwels
2018-07-16 2.IC 01.stage 16.07 61 61 144.1 km Tour de Liége C.Raymackers
2018-04-02 2.2U 04.stage 02.04 73 82 91.3 km Tript. Monts Châteaux S.Dewulf
2018-04-02 2.2U 03.stage 02.04 95 88 9.6 km Tript. Monts Châteaux S.Dewulf
2018-04-01 2.2U 02.stage 01.04 111 89 162.8 km Tript. Monts Châteaux J.Philipsen
2018-03-31 2.2U 01.stage 31.03 74 74 136.4 km Tript. Monts Châteaux J.Philipsen

Info

Nation Belgium

Born20 year, Jan 9th 1998